KELP/ELP METAR and TAF weather

Enter ICAO airport designator
Station Type Date Time Source
KELP METAR 2019/08/22 03:51 UTC NOAA

KELP 220351Z 32011G17KT 10SM FEW070 BKN110 OVC160 27/14 A3003 RMK AO2 RAE25 TSE25 PRESRR SLP091 P0000 T02670144


Station Type Date Time Source
KELP Decoded METAR 2019/08/22 03:51 UTC NOAA

Station name not available
Aug 21, 2019 - 11:51 PM EDT / 2019.08.22 0351 UTC
Wind: from the NW (320 degrees) at 13 MPH (11 KT) gusting to 20 MPH (17 KT):0
Visibility: 10 mile(s):0
Sky conditions: overcast
Precipitation last hour: A trace
Temperature: 80.1 F (26.7 C)
Dew Point: 57.9 F (14.4 C)
Relative Humidity: 46%
Pressure (altimeter): 30.03 in. Hg (1016 hPa)
Pressure tendency: rising rapidly
ob: KELP 220351Z 32011G17KT 10SM FEW070 BKN110 OVC160 27/14 A3003 RMK AO2 RAE25 TSE25 PRESRR SLP091 P0000 T02670144
cycle: 4

Station Type Date Time Source
KELP TAF 2019/08/22 01:36 UTC NOAA

TAF
AMD KELP 220035Z 2201/2224 36015G30KT 4SM BLDU VCTS SCT080CB BKN150
FM220300 36011KT P6SM SCT100 BKN250
FM221200 VRB04KT P6SM FEW120 SCT250

Example: see airport list